sensor_id;sensor_type;location;lat;lon;timestamp;P1;durP1;ratioP1;P2;durP2;ratioP2
47784;SDS011;35233;55.686;37.848;2023-09-30T00:00:16;15.50;;;9.40;;
47784;SDS011;35233;55.686;37.848;2023-09-30T00:02:42;12.90;;;9.40;;
47784;SDS011;35233;55.686;37.848;2023-09-30T00:05:07;14.23;;;9.05;;
47784;SDS011;35233;55.686;37.848;2023-09-30T00:07:33;11.65;;;8.90;;
47784;SDS011;35233;55.686;37.848;2023-09-30T00:09:59;12.90;;;8.90;;
47784;SDS011;35233;55.686;37.848;2023-09-30T00:12:25;11.55;;;8.25;;
47784;SDS011;35233;55.686;37.848;2023-09-30T00:14:51;14.25;;;9.00;;
47784;SDS011;35233;55.686;37.848;2023-09-30T00:17:17;12.18;;;8.60;;
47784;SDS011;35233;55.686;37.848;2023-09-30T00:19:43;12.80;;;8.60;;
47784;SDS011;35233;55.686;37.848;2023-09-30T00:22:09;11.02;;;8.38;;
47784;SDS011;35233;55.686;37.848;2023-09-30T00:24:35;12.93;;;8.48;;
47784;SDS011;35233;55.686;37.848;2023-09-30T00:27:00;11.27;;;7.95;;
47784;SDS011;35233;55.686;37.848;2023-09-30T00:29:26;10.32;;;7.72;;
47784;SDS011;35233;55.686;37.848;2023-09-30T00:31:51;11.55;;;8.45;;
47784;SDS011;35233;55.686;37.848;2023-09-30T00:34:17;14.05;;;8.50;;
47784;SDS011;35233;55.686;37.848;2023-09-30T00:36:43;13.88;;;8.65;;
47784;SDS011;35233;55.686;37.848;2023-09-30T00:39:08;13.15;;;9.25;;
47784;SDS011;35233;55.686;37.848;2023-09-30T00:41:34;10.15;;;7.88;;
47784;SDS011;35233;55.686;37.848;2023-09-30T00:44:01;11.55;;;7.95;;
47784;SDS011;35233;55.686;37.848;2023-09-30T00:46:28;12.77;;;9.23;;
47784;SDS011;35233;55.686;37.848;2023-09-30T00:48:55;11.75;;;8.55;;
47784;SDS011;35233;55.686;37.848;2023-09-30T00:51:23;14.00;;;9.07;;
47784;SDS011;35233;55.686;37.848;2023-09-30T00:53:50;12.70;;;9.15;;
47784;SDS011;35233;55.686;37.848;2023-09-30T00:56:17;14.05;;;9.07;;
47784;SDS011;35233;55.686;37.848;2023-09-30T00:58:45;13.82;;;9.50;;
47784;SDS011;35233;55.686;37.848;2023-09-30T01:01:13;13.98;;;8.75;;
47784;SDS011;35233;55.686;37.848;2023-09-30T01:03:38;13.15;;;9.05;;
47784;SDS011;35233;55.686;37.848;2023-09-30T01:06:04;13.40;;;9.27;;
47784;SDS011;35233;55.686;37.848;2023-09-30T01:08:30;10.95;;;8.95;;
47784;SDS011;35233;55.686;37.848;2023-09-30T01:10:57;12.63;;;9.20;;
47784;SDS011;35233;55.686;37.848;2023-09-30T01:13:23;11.18;;;8.52;;
47784;SDS011;35233;55.686;37.848;2023-09-30T01:15:56;11.52;;;8.50;;
47784;SDS011;35233;55.686;37.848;2023-09-30T01:18:21;12.35;;;9.68;;
47784;SDS011;35233;55.686;37.848;2023-09-30T01:20:47;12.63;;;8.77;;
47784;SDS011;35233;55.686;37.848;2023-09-30T01:23:13;14.25;;;9.15;;
47784;SDS011;35233;55.686;37.848;2023-09-30T01:25:39;12.68;;;8.68;;
47784;SDS011;35233;55.686;37.848;2023-09-30T01:28:07;11.88;;;8.45;;
47784;SDS011;35233;55.686;37.848;2023-09-30T01:30:33;12.48;;;8.77;;
47784;SDS011;35233;55.686;37.848;2023-09-30T01:32:59;11.85;;;9.35;;
47784;SDS011;35233;55.686;37.848;2023-09-30T01:35:25;13.40;;;9.40;;
47784;SDS011;35233;55.686;37.848;2023-09-30T01:37:50;11.90;;;9.27;;
47784;SDS011;35233;55.686;37.848;2023-09-30T01:40:16;13.02;;;9.23;;
47784;SDS011;35233;55.686;37.848;2023-09-30T01:42:43;12.27;;;9.35;;
47784;SDS011;35233;55.686;37.848;2023-09-30T01:45:09;11.43;;;9.32;;
47784;SDS011;35233;55.686;37.848;2023-09-30T01:47:35;11.95;;;9.40;;
47784;SDS011;35233;55.686;37.848;2023-09-30T01:50:01;13.02;;;8.77;;
47784;SDS011;35233;55.686;37.848;2023-09-30T01:52:26;15.13;;;9.27;;
47784;SDS011;35233;55.686;37.848;2023-09-30T01:54:52;15.15;;;10.00;;
47784;SDS011;35233;55.686;37.848;2023-09-30T01:57:19;12.32;;;9.60;;
47784;SDS011;35233;55.686;37.848;2023-09-30T01:59:44;17.30;;;9.75;;
47784;SDS011;35233;55.686;37.848;2023-09-30T02:02:10;11.55;;;9.82;;
47784;SDS011;35233;55.686;37.848;2023-09-30T02:04:36;14.05;;;9.75;;
47784;SDS011;35233;55.686;37.848;2023-09-30T02:07:01;12.65;;;9.13;;
47784;SDS011;35233;55.686;37.848;2023-09-30T02:09:27;12.60;;;9.27;;
47784;SDS011;35233;55.686;37.848;2023-09-30T02:11:53;11.43;;;9.20;;
47784;SDS011;35233;55.686;37.848;2023-09-30T02:14:20;12.25;;;9.20;;
47784;SDS011;35233;55.686;37.848;2023-09-30T02:16:45;11.93;;;8.48;;
47784;SDS011;35233;55.686;37.848;2023-09-30T02:19:11;13.30;;;9.75;;
47784;SDS011;35233;55.686;37.848;2023-09-30T02:21:38;12.93;;;9.25;;
47784;SDS011;35233;55.686;37.848;2023-09-30T02:24:03;12.75;;;9.45;;
47784;SDS011;35233;55.686;37.848;2023-09-30T02:26:31;12.00;;;9.30;;
47784;SDS011;35233;55.686;37.848;2023-09-30T02:28:58;11.75;;;8.27;;
47784;SDS011;35233;55.686;37.848;2023-09-30T02:31:23;11.80;;;8.93;;
47784;SDS011;35233;55.686;37.848;2023-09-30T02:33:49;13.57;;;9.23;;
47784;SDS011;35233;55.686;37.848;2023-09-30T02:36:15;12.73;;;9.75;;
47784;SDS011;35233;55.686;37.848;2023-09-30T02:38:41;12.05;;;9.25;;
47784;SDS011;35233;55.686;37.848;2023-09-30T02:41:07;14.98;;;9.45;;
47784;SDS011;35233;55.686;37.848;2023-09-30T02:43:32;13.98;;;9.93;;
47784;SDS011;35233;55.686;37.848;2023-09-30T02:45:58;13.10;;;9.02;;
47784;SDS011;35233;55.686;37.848;2023-09-30T02:48:24;13.23;;;9.73;;
47784;SDS011;35233;55.686;37.848;2023-09-30T02:50:50;14.20;;;9.82;;
47784;SDS011;35233;55.686;37.848;2023-09-30T02:53:15;12.98;;;9.50;;
47784;SDS011;35233;55.686;37.848;2023-09-30T02:55:41;15.00;;;10.40;;
47784;SDS011;35233;55.686;37.848;2023-09-30T02:58:07;12.90;;;9.35;;
47784;SDS011;35233;55.686;37.848;2023-09-30T03:00:37;12.73;;;9.27;;
47784;SDS011;35233;55.686;37.848;2023-09-30T03:03:03;13.75;;;9.48;;
47784;SDS011;35233;55.686;37.848;2023-09-30T03:05:29;11.90;;;9.13;;
47784;SDS011;35233;55.686;37.848;2023-09-30T03:07:58;12.68;;;9.82;;
47784;SDS011;35233;55.686;37.848;2023-09-30T03:10:26;11.93;;;9.55;;
47784;SDS011;35233;55.686;37.848;2023-09-30T03:12:52;10.65;;;8.85;;
47784;SDS011;35233;55.686;37.848;2023-09-30T03:15:18;12.32;;;9.35;;
47784;SDS011;35233;55.686;37.848;2023-09-30T03:17:44;13.60;;;9.90;;
47784;SDS011;35233;55.686;37.848;2023-09-30T03:20:10;11.02;;;8.98;;
47784;SDS011;35233;55.686;37.848;2023-09-30T03:22:40;13.52;;;9.63;;
47784;SDS011;35233;55.686;37.848;2023-09-30T03:25:08;11.95;;;9.32;;
47784;SDS011;35233;55.686;37.848;2023-09-30T03:27:34;12.48;;;9.50;;
47784;SDS011;35233;55.686;37.848;2023-09-30T03:30:02;13.60;;;9.35;;
47784;SDS011;35233;55.686;37.848;2023-09-30T03:32:28;13.18;;;9.05;;
47784;SDS011;35233;55.686;37.848;2023-09-30T03:34:54;11.25;;;9.15;;
47784;SDS011;35233;55.686;37.848;2023-09-30T03:37:24;12.10;;;9.45;;
47784;SDS011;35233;55.686;37.848;2023-09-30T03:39:52;11.63;;;9.23;;
47784;SDS011;35233;55.686;37.848;2023-09-30T03:42:21;11.57;;;8.82;;
47784;SDS011;35233;55.686;37.848;2023-09-30T03:44:46;12.15;;;8.90;;
47784;SDS011;35233;55.686;37.848;2023-09-30T03:47:14;14.40;;;10.25;;
47784;SDS011;35233;55.686;37.848;2023-09-30T03:49:43;11.68;;;8.98;;
47784;SDS011;35233;55.686;37.848;2023-09-30T03:52:09;11.93;;;9.15;;
47784;SDS011;35233;55.686;37.848;2023-09-30T03:54:36;11.93;;;9.48;;
47784;SDS011;35233;55.686;37.848;2023-09-30T03:57:02;13.43;;;9.25;;
47784;SDS011;35233;55.686;37.848;2023-09-30T03:59:28;10.55;;;8.48;;
47784;SDS011;35233;55.686;37.848;2023-09-30T04:01:55;11.60;;;8.90;;
47784;SDS011;35233;55.686;37.848;2023-09-30T04:04:23;12.60;;;9.43;;
47784;SDS011;35233;55.686;37.848;2023-09-30T04:06:50;10.52;;;9.07;;
47784;SDS011;35233;55.686;37.848;2023-09-30T04:09:16;12.70;;;8.45;;
47784;SDS011;35233;55.686;37.848;2023-09-30T04:11:42;10.43;;;8.10;;
47784;SDS011;35233;55.686;37.848;2023-09-30T04:14:08;12.50;;;9.15;;
47784;SDS011;35233;55.686;37.848;2023-09-30T04:16:34;11.93;;;8.90;;
47784;SDS011;35233;55.686;37.848;2023-09-30T04:19:04;11.57;;;9.13;;
47784;SDS011;35233;55.686;37.848;2023-09-30T04:21:32;11.27;;;8.70;;
47784;SDS011;35233;55.686;37.848;2023-09-30T04:23:59;10.63;;;8.73;;
47784;SDS011;35233;55.686;37.848;2023-09-30T04:26:25;11.57;;;8.80;;
47784;SDS011;35233;55.686;37.848;2023-09-30T04:28:51;13.45;;;8.68;;
47784;SDS011;35233;55.686;37.848;2023-09-30T04:31:18;12.05;;;8.82;;
47784;SDS011;35233;55.686;37.848;2023-09-30T04:33:45;12.20;;;9.25;;
47784;SDS011;35233;55.686;37.848;2023-09-30T04:36:10;13.35;;;9.23;;
47784;SDS011;35233;55.686;37.848;2023-09-30T04:38:36;12.93;;;8.88;;
47784;SDS011;35233;55.686;37.848;2023-09-30T04:41:04;10.68;;;8.55;;
47784;SDS011;35233;55.686;37.848;2023-09-30T04:43:32;12.35;;;9.43;;
47784;SDS011;35233;55.686;37.848;2023-09-30T04:45:59;11.43;;;8.68;;
47784;SDS011;35233;55.686;37.848;2023-09-30T04:48:24;12.88;;;9.30;;
47784;SDS011;35233;55.686;37.848;2023-09-30T04:50:50;13.30;;;9.18;;
47784;SDS011;35233;55.686;37.848;2023-09-30T04:53:16;12.13;;;8.88;;
47784;SDS011;35233;55.686;37.848;2023-09-30T04:55:43;11.63;;;8.90;;
47784;SDS011;35233;55.686;37.848;2023-09-30T04:58:09;12.50;;;9.50;;
47784;SDS011;35233;55.686;37.848;2023-09-30T05:00:36;11.55;;;9.50;;
47784;SDS011;35233;55.686;37.848;2023-09-30T05:03:01;13.90;;;9.50;;
47784;SDS011;35233;55.686;37.848;2023-09-30T05:05:27;11.20;;;9.10;;
47784;SDS011;35233;55.686;37.848;2023-09-30T05:07:53;14.07;;;9.18;;
47784;SDS011;35233;55.686;37.848;2023-09-30T05:10:19;12.15;;;9.32;;
47784;SDS011;35233;55.686;37.848;2023-09-30T05:12:45;13.50;;;8.82;;
47784;SDS011;35233;55.686;37.848;2023-09-30T05:15:14;12.10;;;8.95;;
47784;SDS011;35233;55.686;37.848;2023-09-30T05:17:41;13.48;;;9.60;;
47784;SDS011;35233;55.686;37.848;2023-09-30T05:20:09;12.80;;;10.15;;
47784;SDS011;35233;55.686;37.848;2023-09-30T05:22:35;13.38;;;9.60;;
47784;SDS011;35233;55.686;37.848;2023-09-30T05:25:01;11.85;;;9.40;;
47784;SDS011;35233;55.686;37.848;2023-09-30T05:27:27;12.32;;;9.38;;
47784;SDS011;35233;55.686;37.848;2023-09-30T05:29:53;12.65;;;9.73;;
47784;SDS011;35233;55.686;37.848;2023-09-30T05:32:20;14.57;;;9.40;;
47784;SDS011;35233;55.686;37.848;2023-09-30T05:34:47;12.30;;;9.05;;
47784;SDS011;35233;55.686;37.848;2023-09-30T05:37:13;11.90;;;8.90;;
47784;SDS011;35233;55.686;37.848;2023-09-30T05:39:39;13.65;;;9.50;;
47784;SDS011;35233;55.686;37.848;2023-09-30T05:42:04;11.40;;;9.52;;
47784;SDS011;35233;55.686;37.848;2023-09-30T05:44:31;12.15;;;9.27;;
47784;SDS011;35233;55.686;37.848;2023-09-30T05:46:57;12.55;;;9.23;;
47784;SDS011;35233;55.686;37.848;2023-09-30T05:49:25;14.52;;;9.68;;
47784;SDS011;35233;55.686;37.848;2023-09-30T05:51:50;12.55;;;9.68;;
47784;SDS011;35233;55.686;37.848;2023-09-30T05:54:16;13.77;;;9.45;;
47784;SDS011;35233;55.686;37.848;2023-09-30T05:56:42;12.80;;;8.57;;
47784;SDS011;35233;55.686;37.848;2023-09-30T05:59:08;13.00;;;9.15;;
47784;SDS011;35233;55.686;37.848;2023-09-30T06:01:34;11.65;;;8.70;;
47784;SDS011;35233;55.686;37.848;2023-09-30T06:04:01;12.35;;;9.00;;
47784;SDS011;35233;55.686;37.848;2023-09-30T06:06:27;10.52;;;9.23;;
47784;SDS011;35233;55.686;37.848;2023-09-30T06:08:56;14.60;;;9.82;;
47784;SDS011;35233;55.686;37.848;2023-09-30T06:11:24;16.75;;;9.43;;
47784;SDS011;35233;55.686;37.848;2023-09-30T06:13:56;12.27;;;8.43;;
47784;SDS011;35233;55.686;37.848;2023-09-30T06:16:26;15.73;;;9.90;;
47784;SDS011;35233;55.686;37.848;2023-09-30T06:18:55;13.00;;;9.10;;
47784;SDS011;35233;55.686;37.848;2023-09-30T06:21:20;14.20;;;9.98;;
47784;SDS011;35233;55.686;37.848;2023-09-30T06:23:49;13.77;;;8.98;;
47784;SDS011;35233;55.686;37.848;2023-09-30T06:26:17;14.88;;;9.57;;
47784;SDS011;35233;55.686;37.848;2023-09-30T06:28:42;12.73;;;8.90;;
47784;SDS011;35233;55.686;37.848;2023-09-30T06:31:09;12.35;;;9.07;;
47784;SDS011;35233;55.686;37.848;2023-09-30T06:33:35;12.77;;;9.68;;
47784;SDS011;35233;55.686;37.848;2023-09-30T06:36:07;13.00;;;9.63;;
47784;SDS011;35233;55.686;37.848;2023-09-30T06:38:36;14.75;;;8.98;;
47784;SDS011;35233;55.686;37.848;2023-09-30T06:41:05;12.75;;;9.23;;
47784;SDS011;35233;55.686;37.848;2023-09-30T06:43:31;13.63;;;8.77;;
47784;SDS011;35233;55.686;37.848;2023-09-30T06:45:58;15.85;;;9.20;;
47784;SDS011;35233;55.686;37.848;2023-09-30T06:48:23;14.63;;;9.23;;
47784;SDS011;35233;55.686;37.848;2023-09-30T06:50:49;13.90;;;9.20;;
47784;SDS011;35233;55.686;37.848;2023-09-30T06:53:15;16.02;;;9.38;;
47784;SDS011;35233;55.686;37.848;2023-09-30T06:55:42;16.40;;;9.27;;
47784;SDS011;35233;55.686;37.848;2023-09-30T06:58:11;16.08;;;9.27;;
47784;SDS011;35233;55.686;37.848;2023-09-30T07:00:37;17.38;;;8.80;;
47784;SDS011;35233;55.686;37.848;2023-09-30T07:03:06;17.13;;;9.77;;
47784;SDS011;35233;55.686;37.848;2023-09-30T07:05:32;19.27;;;9.20;;
47784;SDS011;35233;55.686;37.848;2023-09-30T07:07:58;12.02;;;8.48;;
47784;SDS011;35233;55.686;37.848;2023-09-30T07:10:24;18.40;;;9.38;;
47784;SDS011;35233;55.686;37.848;2023-09-30T07:12:49;18.02;;;9.40;;
47784;SDS011;35233;55.686;37.848;2023-09-30T07:15:15;21.17;;;9.02;;
47784;SDS011;35233;55.686;37.848;2023-09-30T07:17:41;17.10;;;9.15;;
47784;SDS011;35233;55.686;37.848;2023-09-30T07:20:08;16.75;;;9.45;;
47784;SDS011;35233;55.686;37.848;2023-09-30T07:22:35;11.82;;;8.85;;
47784;SDS011;35233;55.686;37.848;2023-09-30T07:25:00;13.90;;;8.90;;
47784;SDS011;35233;55.686;37.848;2023-09-30T07:27:26;15.57;;;9.32;;
47784;SDS011;35233;55.686;37.848;2023-09-30T07:29:52;11.43;;;8.45;;
47784;SDS011;35233;55.686;37.848;2023-09-30T07:32:17;14.18;;;8.65;;
47784;SDS011;35233;55.686;37.848;2023-09-30T07:34:43;13.38;;;9.00;;
47784;SDS011;35233;55.686;37.848;2023-09-30T07:37:09;9.85;;;7.55;;
47784;SDS011;35233;55.686;37.848;2023-09-30T07:39:35;15.20;;;8.20;;
47784;SDS011;35233;55.686;37.848;2023-09-30T07:42:01;12.13;;;8.88;;
47784;SDS011;35233;55.686;37.848;2023-09-30T07:44:26;11.63;;;8.13;;
47784;SDS011;35233;55.686;37.848;2023-09-30T07:46:52;10.70;;;7.95;;
47784;SDS011;35233;55.686;37.848;2023-09-30T07:49:18;11.48;;;9.15;;
47784;SDS011;35233;55.686;37.848;2023-09-30T07:51:44;15.27;;;8.48;;
47784;SDS011;35233;55.686;37.848;2023-09-30T07:54:11;15.13;;;8.88;;
47784;SDS011;35233;55.686;37.848;2023-09-30T07:56:38;15.07;;;8.60;;
47784;SDS011;35233;55.686;37.848;2023-09-30T07:59:04;12.02;;;8.43;;
47784;SDS011;35233;55.686;37.848;2023-09-30T08:01:30;13.32;;;8.45;;
47784;SDS011;35233;55.686;37.848;2023-09-30T08:03:56;11.82;;;8.48;;
47784;SDS011;35233;55.686;37.848;2023-09-30T08:06:22;11.65;;;7.88;;
47784;SDS011;35233;55.686;37.848;2023-09-30T08:08:48;14.48;;;8.07;;
47784;SDS011;35233;55.686;37.848;2023-09-30T08:11:14;13.15;;;8.25;;
47784;SDS011;35233;55.686;37.848;2023-09-30T08:13:40;15.93;;;8.02;;
47784;SDS011;35233;55.686;37.848;2023-09-30T08:16:05;10.13;;;7.88;;
47784;SDS011;35233;55.686;37.848;2023-09-30T08:18:32;13.02;;;7.82;;
47784;SDS011;35233;55.686;37.848;2023-09-30T08:20:57;15.13;;;8.02;;
47784;SDS011;35233;55.686;37.848;2023-09-30T08:23:23;11.75;;;7.88;;
47784;SDS011;35233;55.686;37.848;2023-09-30T08:25:49;10.35;;;7.85;;
47784;SDS011;35233;55.686;37.848;2023-09-30T08:28:14;13.48;;;7.93;;
47784;SDS011;35233;55.686;37.848;2023-09-30T08:30:40;14.77;;;8.98;;
47784;SDS011;35233;55.686;37.848;2023-09-30T08:33:05;14.55;;;8.02;;
47784;SDS011;35233;55.686;37.848;2023-09-30T08:35:36;11.43;;;7.85;;
47784;SDS011;35233;55.686;37.848;2023-09-30T08:38:02;12.65;;;7.65;;
47784;SDS011;35233;55.686;37.848;2023-09-30T08:40:28;12.52;;;7.97;;
47784;SDS011;35233;55.686;37.848;2023-09-30T08:42:54;15.23;;;8.88;;
47784;SDS011;35233;55.686;37.848;2023-09-30T08:45:21;13.77;;;8.98;;
47784;SDS011;35233;55.686;37.848;2023-09-30T08:47:46;12.20;;;7.55;;
47784;SDS011;35233;55.686;37.848;2023-09-30T08:50:12;11.23;;;7.80;;
47784;SDS011;35233;55.686;37.848;2023-09-30T08:52:42;16.65;;;7.72;;
47784;SDS011;35233;55.686;37.848;2023-09-30T08:55:10;11.70;;;7.88;;
47784;SDS011;35233;55.686;37.848;2023-09-30T08:57:45;11.05;;;7.82;;
47784;SDS011;35233;55.686;37.848;2023-09-30T09:00:13;11.75;;;8.10;;
47784;SDS011;35233;55.686;37.848;2023-09-30T09:02:39;13.07;;;7.20;;
47784;SDS011;35233;55.686;37.848;2023-09-30T09:05:06;14.20;;;7.93;;
47784;SDS011;35233;55.686;37.848;2023-09-30T09:07:32;12.32;;;7.63;;
47784;SDS011;35233;55.686;37.848;2023-09-30T09:10:06;12.55;;;8.23;;
47784;SDS011;35233;55.686;37.848;2023-09-30T09:12:33;10.75;;;7.82;;
47784;SDS011;35233;55.686;37.848;2023-09-30T09:15:00;17.15;;;7.45;;
47784;SDS011;35233;55.686;37.848;2023-09-30T09:17:39;12.52;;;9.02;;
47784;SDS011;35233;55.686;37.848;2023-09-30T09:20:07;13.90;;;8.00;;
47784;SDS011;35233;55.686;37.848;2023-09-30T09:22:39;11.13;;;8.18;;
47784;SDS011;35233;55.686;37.848;2023-09-30T09:25:06;15.20;;;8.02;;
47784;SDS011;35233;55.686;37.848;2023-09-30T09:27:35;11.13;;;7.80;;
47784;SDS011;35233;55.686;37.848;2023-09-30T09:32:50;10.43;;;7.55;;
47784;SDS011;35233;55.686;37.848;2023-09-30T09:35:19;11.75;;;8.30;;
47784;SDS011;35233;55.686;37.848;2023-09-30T09:37:56;11.35;;;7.45;;
47784;SDS011;35233;55.686;37.848;2023-09-30T09:40:27;9.82;;;7.68;;
47784;SDS011;35233;55.686;37.848;2023-09-30T09:42:55;11.70;;;7.90;;
47784;SDS011;35233;55.686;37.848;2023-09-30T09:45:22;14.65;;;8.25;;
47784;SDS011;35233;55.686;37.848;2023-09-30T09:47:48;11.48;;;7.78;;
47784;SDS011;35233;55.686;37.848;2023-09-30T09:50:14;17.65;;;7.90;;
47784;SDS011;35233;55.686;37.848;2023-09-30T09:52:41;11.52;;;7.53;;
47784;SDS011;35233;55.686;37.848;2023-09-30T09:55:10;9.88;;;7.30;;
47784;SDS011;35233;55.686;37.848;2023-09-30T09:57:38;10.45;;;7.72;;
47784;SDS011;35233;55.686;37.848;2023-09-30T10:00:11;8.77;;;6.80;;
47784;SDS011;35233;55.686;37.848;2023-09-30T10:02:42;10.90;;;7.32;;
47784;SDS011;35233;55.686;37.848;2023-09-30T10:05:08;10.40;;;8.10;;
47784;SDS011;35233;55.686;37.848;2023-09-30T10:07:37;10.63;;;7.30;;
47784;SDS011;35233;55.686;37.848;2023-09-30T10:10:07;12.40;;;7.15;;
47784;SDS011;35233;55.686;37.848;2023-09-30T10:12:38;9.32;;;7.32;;
47784;SDS011;35233;55.686;37.848;2023-09-30T10:20:35;11.82;;;6.82;;
47784;SDS011;35233;55.686;37.848;2023-09-30T10:23:22;9.10;;;7.20;;
47784;SDS011;35233;55.686;37.848;2023-09-30T10:25:51;9.48;;;7.18;;
47784;SDS011;35233;55.686;37.848;2023-09-30T10:31:20;9.02;;;7.35;;
47784;SDS011;35233;55.686;37.848;2023-09-30T10:36:28;11.43;;;7.45;;
47784;SDS011;35233;55.686;37.848;2023-09-30T10:38:54;8.75;;;6.80;;
47784;SDS011;35233;55.686;37.848;2023-09-30T10:46:51;14.50;;;7.75;;
47784;SDS011;35233;55.686;37.848;2023-09-30T10:51:52;11.80;;;7.75;;
47784;SDS011;35233;55.686;37.848;2023-09-30T10:54:38;8.98;;;7.05;;
47784;SDS011;35233;55.686;37.848;2023-09-30T10:57:03;11.32;;;7.25;;
47784;SDS011;35233;55.686;37.848;2023-09-30T10:59:29;11.05;;;7.30;;
47784;SDS011;35233;55.686;37.848;2023-09-30T11:01:55;8.82;;;7.30;;
47784;SDS011;35233;55.686;37.848;2023-09-30T11:04:22;11.55;;;7.10;;
47784;SDS011;35233;55.686;37.848;2023-09-30T11:06:49;11.90;;;7.30;;
47784;SDS011;35233;55.686;37.848;2023-09-30T11:09:18;11.13;;;6.63;;
47784;SDS011;35233;55.686;37.848;2023-09-30T11:11:48;8.02;;;6.78;;
47784;SDS011;35233;55.686;37.848;2023-09-30T11:16:52;10.07;;;6.88;;
47784;SDS011;35233;55.686;37.848;2023-09-30T11:19:19;10.15;;;6.60;;
47784;SDS011;35233;55.686;37.848;2023-09-30T11:21:46;9.35;;;6.35;;
47784;SDS011;35233;55.686;37.848;2023-09-30T11:24:17;8.80;;;6.95;;
47784;SDS011;35233;55.686;37.848;2023-09-30T11:26:44;7.40;;;6.20;;
47784;SDS011;35233;55.686;37.848;2023-09-30T11:29:12;8.52;;;6.97;;
47784;SDS011;35233;55.686;37.848;2023-09-30T11:31:41;12.15;;;6.40;;
47784;SDS011;35233;55.686;37.848;2023-09-30T11:34:08;10.98;;;6.97;;
47784;SDS011;35233;55.686;37.848;2023-09-30T11:36:40;12.32;;;6.70;;
47784;SDS011;35233;55.686;37.848;2023-09-30T11:39:08;11.23;;;7.10;;
47784;SDS011;35233;55.686;37.848;2023-09-30T11:41:35;12.43;;;7.32;;
47784;SDS011;35233;55.686;37.848;2023-09-30T11:44:05;8.27;;;7.10;;
47784;SDS011;35233;55.686;37.848;2023-09-30T11:46:32;12.45;;;6.55;;
47784;SDS011;35233;55.686;37.848;2023-09-30T11:49:13;12.27;;;7.18;;
47784;SDS011;35233;55.686;37.848;2023-09-30T11:51:42;12.85;;;7.07;;
47784;SDS011;35233;55.686;37.848;2023-09-30T11:54:11;16.80;;;8.00;;
47784;SDS011;35233;55.686;37.848;2023-09-30T11:56:37;9.60;;;7.00;;
47784;SDS011;35233;55.686;37.848;2023-09-30T11:59:03;10.05;;;7.07;;
47784;SDS011;35233;55.686;37.848;2023-09-30T12:01:32;15.77;;;7.68;;
47784;SDS011;35233;55.686;37.848;2023-09-30T12:03:58;14.70;;;7.65;;
47784;SDS011;35233;55.686;37.848;2023-09-30T12:06:26;19.17;;;7.60;;
47784;SDS011;35233;55.686;37.848;2023-09-30T12:08:51;14.98;;;7.55;;
47784;SDS011;35233;55.686;37.848;2023-09-30T12:11:18;15.45;;;7.78;;
47784;SDS011;35233;55.686;37.848;2023-09-30T12:13:44;19.35;;;7.65;;
47784;SDS011;35233;55.686;37.848;2023-09-30T12:16:13;15.57;;;7.90;;
47784;SDS011;35233;55.686;37.848;2023-09-30T12:18:39;12.85;;;7.07;;
47784;SDS011;35233;55.686;37.848;2023-09-30T12:21:07;15.55;;;7.18;;
47784;SDS011;35233;55.686;37.848;2023-09-30T12:23:35;16.35;;;7.43;;
47784;SDS011;35233;55.686;37.848;2023-09-30T12:26:01;16.77;;;7.32;;
47784;SDS011;35233;55.686;37.848;2023-09-30T12:28:30;12.23;;;7.25;;
47784;SDS011;35233;55.686;37.848;2023-09-30T12:30:59;14.52;;;7.90;;
47784;SDS011;35233;55.686;37.848;2023-09-30T12:33:29;11.10;;;7.75;;
47784;SDS011;35233;55.686;37.848;2023-09-30T12:35:55;11.85;;;7.20;;
47784;SDS011;35233;55.686;37.848;2023-09-30T12:38:22;15.23;;;7.80;;
47784;SDS011;35233;55.686;37.848;2023-09-30T12:40:48;19.00;;;7.40;;
47784;SDS011;35233;55.686;37.848;2023-09-30T12:43:14;11.23;;;7.47;;
47784;SDS011;35233;55.686;37.848;2023-09-30T12:45:40;12.05;;;7.65;;
47784;SDS011;35233;55.686;37.848;2023-09-30T12:48:07;11.18;;;7.20;;
47784;SDS011;35233;55.686;37.848;2023-09-30T12:50:32;11.73;;;8.18;;
47784;SDS011;35233;55.686;37.848;2023-09-30T12:52:58;12.25;;;7.65;;
47784;SDS011;35233;55.686;37.848;2023-09-30T12:55:24;14.15;;;7.28;;
47784;SDS011;35233;55.686;37.848;2023-09-30T12:57:52;12.10;;;7.65;;
47784;SDS011;35233;55.686;37.848;2023-09-30T13:00:18;12.88;;;7.25;;
47784;SDS011;35233;55.686;37.848;2023-09-30T13:02:47;11.65;;;7.28;;
47784;SDS011;35233;55.686;37.848;2023-09-30T13:05:15;15.40;;;7.72;;
47784;SDS011;35233;55.686;37.848;2023-09-30T13:07:42;12.27;;;7.53;;
47784;SDS011;35233;55.686;37.848;2023-09-30T13:10:08;12.07;;;7.38;;
47784;SDS011;35233;55.686;37.848;2023-09-30T13:12:34;10.82;;;7.18;;
47784;SDS011;35233;55.686;37.848;2023-09-30T13:15:00;9.90;;;7.00;;
47784;SDS011;35233;55.686;37.848;2023-09-30T13:17:26;10.98;;;7.93;;
47784;SDS011;35233;55.686;37.848;2023-09-30T13:19:53;10.25;;;7.18;;
47784;SDS011;35233;55.686;37.848;2023-09-30T13:22:19;10.90;;;7.13;;
47784;SDS011;35233;55.686;37.848;2023-09-30T13:24:46;11.68;;;7.05;;
47784;SDS011;35233;55.686;37.848;2023-09-30T13:27:12;9.73;;;7.50;;
47784;SDS011;35233;55.686;37.848;2023-09-30T13:29:41;11.93;;;7.70;;
47784;SDS011;35233;55.686;37.848;2023-09-30T13:32:11;12.65;;;7.68;;
47784;SDS011;35233;55.686;37.848;2023-09-30T13:34:37;10.30;;;7.25;;
47784;SDS011;35233;55.686;37.848;2023-09-30T13:37:03;11.50;;;7.30;;
47784;SDS011;35233;55.686;37.848;2023-09-30T13:39:29;10.93;;;7.32;;
47784;SDS011;35233;55.686;37.848;2023-09-30T13:41:56;8.68;;;6.65;;
47784;SDS011;35233;55.686;37.848;2023-09-30T13:44:22;10.18;;;7.22;;
47784;SDS011;35233;55.686;37.848;2023-09-30T13:46:48;9.60;;;6.65;;
47784;SDS011;35233;55.686;37.848;2023-09-30T13:49:13;8.82;;;7.03;;
47784;SDS011;35233;55.686;37.848;2023-09-30T13:51:39;9.00;;;6.90;;
47784;SDS011;35233;55.686;37.848;2023-09-30T13:54:05;9.80;;;6.95;;
47784;SDS011;35233;55.686;37.848;2023-09-30T13:56:34;10.45;;;6.95;;
47784;SDS011;35233;55.686;37.848;2023-09-30T13:58:59;8.90;;;6.90;;
47784;SDS011;35233;55.686;37.848;2023-09-30T14:01:25;9.40;;;6.07;;
47784;SDS011;35233;55.686;37.848;2023-09-30T14:03:52;11.13;;;7.05;;
47784;SDS011;35233;55.686;37.848;2023-09-30T14:06:22;11.40;;;6.43;;
47784;SDS011;35233;55.686;37.848;2023-09-30T14:08:48;8.70;;;6.18;;
47784;SDS011;35233;55.686;37.848;2023-09-30T14:11:18;9.35;;;6.85;;
47784;SDS011;35233;55.686;37.848;2023-09-30T14:13:44;10.35;;;7.22;;
47784;SDS011;35233;55.686;37.848;2023-09-30T14:16:10;9.73;;;7.35;;
47784;SDS011;35233;55.686;37.848;2023-09-30T14:18:37;8.82;;;7.03;;
47784;SDS011;35233;55.686;37.848;2023-09-30T14:21:04;8.90;;;6.82;;
47784;SDS011;35233;55.686;37.848;2023-09-30T14:23:31;9.75;;;6.90;;
47784;SDS011;35233;55.686;37.848;2023-09-30T14:25:57;10.00;;;7.07;;
47784;SDS011;35233;55.686;37.848;2023-09-30T14:28:24;9.63;;;6.60;;
47784;SDS011;35233;55.686;37.848;2023-09-30T14:30:50;9.70;;;7.00;;
47784;SDS011;35233;55.686;37.848;2023-09-30T14:33:18;10.60;;;6.82;;
47784;SDS011;35233;55.686;37.848;2023-09-30T14:35:47;7.85;;;6.00;;
47784;SDS011;35233;55.686;37.848;2023-09-30T14:38:13;8.63;;;6.72;;
47784;SDS011;35233;55.686;37.848;2023-09-30T14:40:40;9.98;;;6.90;;
47784;SDS011;35233;55.686;37.848;2023-09-30T14:43:07;8.77;;;6.47;;
47784;SDS011;35233;55.686;37.848;2023-09-30T14:45:39;9.43;;;6.75;;